sensor_id;sensor_type;location;lat;lon;timestamp;P1;durP1;ratioP1;P2;durP2;ratioP2
1090;SDS011;534;48.704;9.122;2022-09-21T03:01:41;0.67;;;0.60;;
1090;SDS011;534;48.704;9.122;2022-09-21T03:04:08;0.80;;;0.70;;
1090;SDS011;534;48.704;9.122;2022-09-21T03:06:35;0.70;;;0.70;;
1090;SDS011;534;48.704;9.122;2022-09-21T03:09:02;0.70;;;0.70;;
1090;SDS011;534;48.704;9.122;2022-09-21T03:11:29;0.70;;;0.70;;
1090;SDS011;534;48.704;9.122;2022-09-21T03:13:56;0.70;;;0.70;;
1090;SDS011;534;48.704;9.122;2022-09-21T03:16:23;0.70;;;0.70;;
1090;SDS011;534;48.704;9.122;2022-09-21T03:18:51;0.70;;;0.70;;
1090;SDS011;534;48.704;9.122;2022-09-21T03:21:17;0.90;;;0.90;;
1090;SDS011;534;48.704;9.122;2022-09-21T03:23:44;0.70;;;0.70;;
1090;SDS011;534;48.704;9.122;2022-09-21T03:26:11;0.73;;;0.70;;
1090;SDS011;534;48.704;9.122;2022-09-21T03:28:37;0.80;;;0.80;;
1090;SDS011;534;48.704;9.122;2022-09-21T03:31:04;0.80;;;0.80;;
1090;SDS011;534;48.704;9.122;2022-09-21T03:33:31;0.90;;;0.60;;
1090;SDS011;534;48.704;9.122;2022-09-21T03:35:59;0.70;;;0.70;;
1090;SDS011;534;48.704;9.122;2022-09-21T03:38:26;0.70;;;0.70;;
1090;SDS011;534;48.704;9.122;2022-09-21T03:40:53;0.73;;;0.73;;
1090;SDS011;534;48.704;9.122;2022-09-21T03:43:22;0.73;;;0.70;;
1090;SDS011;534;48.704;9.122;2022-09-21T03:45:49;0.70;;;0.60;;
1090;SDS011;534;48.704;9.122;2022-09-21T03:48:16;0.70;;;0.70;;
1090;SDS011;534;48.704;9.122;2022-09-21T03:50:42;0.80;;;0.80;;
1090;SDS011;534;48.704;9.122;2022-09-21T03:53:11;0.83;;;0.70;;
1090;SDS011;534;48.704;9.122;2022-09-21T03:55:38;0.83;;;0.83;;
1090;SDS011;534;48.704;9.122;2022-09-21T03:58:05;0.80;;;0.80;;
1090;SDS011;534;48.704;9.122;2022-09-21T04:00:31;0.90;;;0.90;;
1090;SDS011;534;48.704;9.122;2022-09-21T04:02:58;0.70;;;0.70;;
1090;SDS011;534;48.704;9.122;2022-09-21T04:05:26;1.07;;;0.80;;
1090;SDS011;534;48.704;9.122;2022-09-21T04:07:53;0.90;;;0.90;;
1090;SDS011;534;48.704;9.122;2022-09-21T04:10:22;0.90;;;0.90;;
1090;SDS011;534;48.704;9.122;2022-09-21T04:12:51;0.97;;;0.97;;
1090;SDS011;534;48.704;9.122;2022-09-21T04:15:21;1.00;;;1.00;;
1090;SDS011;534;48.704;9.122;2022-09-21T04:17:49;0.90;;;0.90;;
1090;SDS011;534;48.704;9.122;2022-09-21T04:20:16;1.03;;;1.03;;
1090;SDS011;534;48.704;9.122;2022-09-21T04:22:42;1.07;;;1.07;;
1090;SDS011;534;48.704;9.122;2022-09-21T04:25:11;1.00;;;1.00;;
1090;SDS011;534;48.704;9.122;2022-09-21T04:27:40;0.90;;;0.90;;
1090;SDS011;534;48.704;9.122;2022-09-21T04:30:08;0.80;;;0.80;;
1090;SDS011;534;48.704;9.122;2022-09-21T04:32:37;0.90;;;0.90;;
1090;SDS011;534;48.704;9.122;2022-09-21T04:35:04;0.83;;;0.83;;
1090;SDS011;534;48.704;9.122;2022-09-21T04:37:31;1.00;;;1.00;;
1090;SDS011;534;48.704;9.122;2022-09-21T04:39:57;1.20;;;1.20;;
1090;SDS011;534;48.704;9.122;2022-09-21T04:42:24;0.80;;;0.80;;
1090;SDS011;534;48.704;9.122;2022-09-21T04:44:54;0.80;;;0.80;;
1090;SDS011;534;48.704;9.122;2022-09-21T04:47:21;0.97;;;0.97;;
1090;SDS011;534;48.704;9.122;2022-09-21T04:49:49;0.90;;;0.90;;
1090;SDS011;534;48.704;9.122;2022-09-21T04:52:16;0.97;;;0.97;;
1090;SDS011;534;48.704;9.122;2022-09-21T04:54:43;1.10;;;1.10;;
1090;SDS011;534;48.704;9.122;2022-09-21T04:57:10;0.90;;;0.90;;
1090;SDS011;534;48.704;9.122;2022-09-21T04:59:37;1.00;;;1.00;;
1090;SDS011;534;48.704;9.122;2022-09-21T05:02:05;1.10;;;1.00;;
1090;SDS011;534;48.704;9.122;2022-09-21T05:04:31;0.90;;;0.90;;
1090;SDS011;534;48.704;9.122;2022-09-21T05:06:58;0.90;;;0.90;;
1090;SDS011;534;48.704;9.122;2022-09-21T05:09:25;0.90;;;0.90;;
1090;SDS011;534;48.704;9.122;2022-09-21T05:12:09;1.00;;;1.00;;
1090;SDS011;534;48.704;9.122;2022-09-21T05:14:35;1.30;;;1.20;;
1090;SDS011;534;48.704;9.122;2022-09-21T05:17:02;1.00;;;1.00;;
1090;SDS011;534;48.704;9.122;2022-09-21T05:19:30;1.10;;;1.00;;
1090;SDS011;534;48.704;9.122;2022-09-21T05:21:57;0.90;;;0.90;;
1090;SDS011;534;48.704;9.122;2022-09-21T05:24:23;1.17;;;1.17;;
1090;SDS011;534;48.704;9.122;2022-09-21T05:26:50;0.97;;;0.90;;
1090;SDS011;534;48.704;9.122;2022-09-21T05:29:17;0.87;;;0.87;;
1090;SDS011;534;48.704;9.122;2022-09-21T05:31:45;1.47;;;1.37;;
1090;SDS011;534;48.704;9.122;2022-09-21T05:34:18;1.13;;;1.03;;
1090;SDS011;534;48.704;9.122;2022-09-21T05:36:56;0.90;;;0.90;;
1090;SDS011;534;48.704;9.122;2022-09-21T05:39:25;1.00;;;0.90;;
1090;SDS011;534;48.704;9.122;2022-09-21T05:41:53;0.83;;;0.83;;
1090;SDS011;534;48.704;9.122;2022-09-21T05:44:20;1.00;;;0.90;;
1090;SDS011;534;48.704;9.122;2022-09-21T05:46:48;0.90;;;0.90;;
1090;SDS011;534;48.704;9.122;2022-09-21T05:49:19;0.90;;;0.90;;
1090;SDS011;534;48.704;9.122;2022-09-21T05:51:55;1.73;;;0.90;;
1090;SDS011;534;48.704;9.122;2022-09-21T05:54:30;1.00;;;1.00;;
1090;SDS011;534;48.704;9.122;2022-09-21T05:57:04;2.70;;;1.30;;
1090;SDS011;534;48.704;9.122;2022-09-21T05:59:46;1.20;;;1.10;;
1090;SDS011;534;48.704;9.122;2022-09-21T06:02:24;1.30;;;1.20;;
1090;SDS011;534;48.704;9.122;2022-09-21T06:05:09;1.07;;;1.07;;
1090;SDS011;534;48.704;9.122;2022-09-21T06:07:39;1.10;;;1.10;;
1090;SDS011;534;48.704;9.122;2022-09-21T06:10:07;1.43;;;1.40;;
1090;SDS011;534;48.704;9.122;2022-09-21T06:12:34;0.90;;;0.90;;
1090;SDS011;534;48.704;9.122;2022-09-21T06:15:01;1.00;;;0.90;;
1090;SDS011;534;48.704;9.122;2022-09-21T06:17:28;0.90;;;0.90;;
1090;SDS011;534;48.704;9.122;2022-09-21T06:19:55;1.60;;;1.50;;
1090;SDS011;534;48.704;9.122;2022-09-21T06:22:21;0.90;;;0.90;;
1090;SDS011;534;48.704;9.122;2022-09-21T06:24:50;1.00;;;1.00;;
1090;SDS011;534;48.704;9.122;2022-09-21T06:27:16;1.13;;;0.90;;
1090;SDS011;534;48.704;9.122;2022-09-21T06:29:43;1.00;;;1.00;;
1090;SDS011;534;48.704;9.122;2022-09-21T06:32:09;0.90;;;0.90;;
1090;SDS011;534;48.704;9.122;2022-09-21T06:34:36;0.90;;;0.90;;
1090;SDS011;534;48.704;9.122;2022-09-21T06:37:03;1.10;;;1.00;;
1090;SDS011;534;48.704;9.122;2022-09-21T06:39:29;1.00;;;1.00;;
1090;SDS011;534;48.704;9.122;2022-09-21T06:41:57;1.00;;;1.00;;
1090;SDS011;534;48.704;9.122;2022-09-21T06:44:24;1.40;;;0.90;;
1090;SDS011;534;48.704;9.122;2022-09-21T06:46:53;0.80;;;0.80;;
1090;SDS011;534;48.704;9.122;2022-09-21T06:49:20;0.90;;;0.90;;
1090;SDS011;534;48.704;9.122;2022-09-21T06:51:47;0.80;;;0.80;;
1090;SDS011;534;48.704;9.122;2022-09-21T06:54:14;0.80;;;0.80;;
1090;SDS011;534;48.704;9.122;2022-09-21T06:56:41;0.90;;;0.90;;
1090;SDS011;534;48.704;9.122;2022-09-21T06:59:09;0.77;;;0.77;;
1090;SDS011;534;48.704;9.122;2022-09-21T07:01:36;0.87;;;0.87;;
1090;SDS011;534;48.704;9.122;2022-09-21T07:04:03;0.90;;;0.90;;
1090;SDS011;534;48.704;9.122;2022-09-21T07:06:30;0.97;;;0.90;;
1090;SDS011;534;48.704;9.122;2022-09-21T07:08:57;1.00;;;1.00;;
1090;SDS011;534;48.704;9.122;2022-09-21T07:11:25;1.03;;;0.90;;
1090;SDS011;534;48.704;9.122;2022-09-21T07:13:51;0.70;;;0.70;;
1090;SDS011;534;48.704;9.122;2022-09-21T07:16:19;0.80;;;0.80;;
1090;SDS011;534;48.704;9.122;2022-09-21T07:18:47;0.80;;;0.73;;
1090;SDS011;534;48.704;9.122;2022-09-21T07:21:14;0.83;;;0.83;;
1090;SDS011;534;48.704;9.122;2022-09-21T07:23:40;0.80;;;0.80;;
1090;SDS011;534;48.704;9.122;2022-09-21T07:26:08;0.83;;;0.83;;
1090;SDS011;534;48.704;9.122;2022-09-21T07:28:36;0.77;;;0.77;;
1090;SDS011;534;48.704;9.122;2022-09-21T07:31:06;0.80;;;0.70;;
1090;SDS011;534;48.704;9.122;2022-09-21T07:33:35;1.10;;;1.00;;
1090;SDS011;534;48.704;9.122;2022-09-21T07:36:03;0.70;;;0.70;;
1090;SDS011;534;48.704;9.122;2022-09-21T07:38:34;0.80;;;0.70;;
1090;SDS011;534;48.704;9.122;2022-09-21T07:41:01;0.93;;;0.90;;
1090;SDS011;534;48.704;9.122;2022-09-21T07:43:28;2.20;;;0.90;;
1090;SDS011;534;48.704;9.122;2022-09-21T07:45:55;0.80;;;0.80;;
1090;SDS011;534;48.704;9.122;2022-09-21T07:48:22;0.80;;;0.80;;
1090;SDS011;534;48.704;9.122;2022-09-21T07:50:50;0.70;;;0.70;;
1090;SDS011;534;48.704;9.122;2022-09-21T07:53:16;0.70;;;0.70;;
1090;SDS011;534;48.704;9.122;2022-09-21T07:55:43;0.83;;;0.83;;
1090;SDS011;534;48.704;9.122;2022-09-21T07:58:10;0.80;;;0.80;;
1090;SDS011;534;48.704;9.122;2022-09-21T08:00:54;0.90;;;0.90;;
1090;SDS011;534;48.704;9.122;2022-09-21T08:03:21;1.00;;;0.80;;
1090;SDS011;534;48.704;9.122;2022-09-21T08:05:47;0.80;;;0.77;;
1090;SDS011;534;48.704;9.122;2022-09-21T08:08:16;0.93;;;0.93;;
1090;SDS011;534;48.704;9.122;2022-09-21T08:10:43;0.80;;;0.80;;
1090;SDS011;534;48.704;9.122;2022-09-21T08:13:10;0.70;;;0.70;;
1090;SDS011;534;48.704;9.122;2022-09-21T08:15:37;0.70;;;0.70;;
1090;SDS011;534;48.704;9.122;2022-09-21T08:18:04;0.87;;;0.87;;
1090;SDS011;534;48.704;9.122;2022-09-21T08:20:31;0.70;;;0.70;;
1090;SDS011;534;48.704;9.122;2022-09-21T08:22:59;0.70;;;0.70;;
1090;SDS011;534;48.704;9.122;2022-09-21T08:25:26;0.80;;;0.80;;
1090;SDS011;534;48.704;9.122;2022-09-21T08:27:56;1.00;;;0.70;;
1090;SDS011;534;48.704;9.122;2022-09-21T08:30:23;0.70;;;0.70;;
1090;SDS011;534;48.704;9.122;2022-09-21T08:32:52;0.70;;;0.60;;
1090;SDS011;534;48.704;9.122;2022-09-21T08:35:19;0.60;;;0.60;;
1090;SDS011;534;48.704;9.122;2022-09-21T08:37:46;0.77;;;0.77;;
1090;SDS011;534;48.704;9.122;2022-09-21T08:40:16;1.13;;;0.70;;
1090;SDS011;534;48.704;9.122;2022-09-21T08:42:45;0.70;;;0.70;;
1090;SDS011;534;48.704;9.122;2022-09-21T08:45:21;0.60;;;0.60;;
1090;SDS011;534;48.704;9.122;2022-09-21T08:47:55;0.70;;;0.70;;
1090;SDS011;534;48.704;9.122;2022-09-21T08:50:27;0.80;;;0.70;;
1090;SDS011;534;48.704;9.122;2022-09-21T08:52:59;0.70;;;0.60;;
1090;SDS011;534;48.704;9.122;2022-09-21T08:55:31;0.70;;;0.60;;
1090;SDS011;534;48.704;9.122;2022-09-21T08:57:58;0.70;;;0.60;;
1090;SDS011;534;48.704;9.122;2022-09-21T09:00:25;0.80;;;0.80;;
1090;SDS011;534;48.704;9.122;2022-09-21T09:05:48;0.90;;;0.70;;
1090;SDS011;534;48.704;9.122;2022-09-21T09:08:30;0.70;;;0.70;;
1090;SDS011;534;48.704;9.122;2022-09-21T09:11:09;0.70;;;0.60;;
1090;SDS011;534;48.704;9.122;2022-09-21T09:13:48;0.60;;;0.60;;
1090;SDS011;534;48.704;9.122;2022-09-21T09:16:32;0.70;;;0.70;;
1090;SDS011;534;48.704;9.122;2022-09-21T09:19:08;0.70;;;0.60;;
1090;SDS011;534;48.704;9.122;2022-09-21T09:21:43;0.70;;;0.67;;
1090;SDS011;534;48.704;9.122;2022-09-21T09:24:11;0.60;;;0.60;;
1090;SDS011;534;48.704;9.122;2022-09-21T09:26:45;1.13;;;0.60;;
1090;SDS011;534;48.704;9.122;2022-09-21T09:29:17;0.87;;;0.60;;
1090;SDS011;534;48.704;9.122;2022-09-21T09:31:46;0.70;;;0.60;;
1090;SDS011;534;48.704;9.122;2022-09-21T09:34:15;0.70;;;0.60;;
1090;SDS011;534;48.704;9.122;2022-09-21T09:36:49;1.20;;;0.70;;
1090;SDS011;534;48.704;9.122;2022-09-21T09:39:19;0.90;;;0.67;;
1090;SDS011;534;48.704;9.122;2022-09-21T09:41:59;0.70;;;0.70;;
1090;SDS011;534;48.704;9.122;2022-09-21T09:44:41;0.70;;;0.60;;
1090;SDS011;534;48.704;9.122;2022-09-21T09:47:19;0.60;;;0.60;;
1090;SDS011;534;48.704;9.122;2022-09-21T09:49:58;0.60;;;0.60;;
1090;SDS011;534;48.704;9.122;2022-09-21T09:52:29;0.67;;;0.60;;
1090;SDS011;534;48.704;9.122;2022-09-21T09:54:57;0.60;;;0.60;;
1090;SDS011;534;48.704;9.122;2022-09-21T09:57:26;0.67;;;0.60;;
1090;SDS011;534;48.704;9.122;2022-09-21T09:59:55;0.60;;;0.60;;
1090;SDS011;534;48.704;9.122;2022-09-21T10:02:27;1.30;;;0.70;;
1090;SDS011;534;48.704;9.122;2022-09-21T10:04:55;0.70;;;0.60;;
1090;SDS011;534;48.704;9.122;2022-09-21T10:07:32;0.60;;;0.60;;
1090;SDS011;534;48.704;9.122;2022-09-21T10:09:59;0.80;;;0.60;;
1090;SDS011;534;48.704;9.122;2022-09-21T10:12:27;0.60;;;0.57;;
1090;SDS011;534;48.704;9.122;2022-09-21T10:14:56;0.60;;;0.60;;
1090;SDS011;534;48.704;9.122;2022-09-21T10:17:25;0.80;;;0.70;;
1090;SDS011;534;48.704;9.122;2022-09-21T10:19:57;0.60;;;0.60;;
1090;SDS011;534;48.704;9.122;2022-09-21T10:22:25;0.70;;;0.70;;
1090;SDS011;534;48.704;9.122;2022-09-21T10:24:54;0.70;;;0.60;;
1090;SDS011;534;48.704;9.122;2022-09-21T10:27:24;0.60;;;0.60;;
1090;SDS011;534;48.704;9.122;2022-09-21T10:29:53;0.60;;;0.50;;
1090;SDS011;534;48.704;9.122;2022-09-21T10:32:22;0.80;;;0.70;;
1090;SDS011;534;48.704;9.122;2022-09-21T10:35:00;0.60;;;0.50;;
1090;SDS011;534;48.704;9.122;2022-09-21T10:37:39;0.60;;;0.60;;
1090;SDS011;534;48.704;9.122;2022-09-21T10:40:21;0.60;;;0.50;;
1090;SDS011;534;48.704;9.122;2022-09-21T10:42:53;0.80;;;0.80;;
1090;SDS011;534;48.704;9.122;2022-09-21T10:45:24;0.60;;;0.60;;
1090;SDS011;534;48.704;9.122;2022-09-21T10:47:53;1.03;;;0.60;;
1090;SDS011;534;48.704;9.122;2022-09-21T10:50:22;0.60;;;0.60;;
1090;SDS011;534;48.704;9.122;2022-09-21T10:52:53;0.60;;;0.60;;
1090;SDS011;534;48.704;9.122;2022-09-21T10:55:22;0.70;;;0.60;;
1090;SDS011;534;48.704;9.122;2022-09-21T10:57:50;0.60;;;0.60;;
1090;SDS011;534;48.704;9.122;2022-09-21T11:00:33;0.60;;;0.60;;
1090;SDS011;534;48.704;9.122;2022-09-21T11:05:53;0.60;;;0.60;;
1090;SDS011;534;48.704;9.122;2022-09-21T11:08:23;0.60;;;0.53;;
1090;SDS011;534;48.704;9.122;2022-09-21T11:11:01;0.60;;;0.60;;
1090;SDS011;534;48.704;9.122;2022-09-21T11:13:34;0.70;;;0.60;;
1090;SDS011;534;48.704;9.122;2022-09-21T11:16:09;0.60;;;0.50;;
1090;SDS011;534;48.704;9.122;2022-09-21T11:18:42;0.70;;;0.63;;
1090;SDS011;534;48.704;9.122;2022-09-21T11:21:16;0.70;;;0.60;;
1090;SDS011;534;48.704;9.122;2022-09-21T11:23:54;0.60;;;0.60;;
1090;SDS011;534;48.704;9.122;2022-09-21T11:26:29;0.63;;;0.50;;
1090;SDS011;534;48.704;9.122;2022-09-21T11:29:01;0.60;;;0.60;;
1090;SDS011;534;48.704;9.122;2022-09-21T11:31:46;0.60;;;0.53;;
1090;SDS011;534;48.704;9.122;2022-09-21T11:34:26;0.70;;;0.60;;
1090;SDS011;534;48.704;9.122;2022-09-21T11:37:06;0.60;;;0.60;;
1090;SDS011;534;48.704;9.122;2022-09-21T11:39:42;0.60;;;0.60;;
1090;SDS011;534;48.704;9.122;2022-09-21T11:42:24;0.60;;;0.60;;
1090;SDS011;534;48.704;9.122;2022-09-21T11:45:09;0.70;;;0.67;;
1090;SDS011;534;48.704;9.122;2022-09-21T11:47:48;0.70;;;0.60;;
1090;SDS011;534;48.704;9.122;2022-09-21T11:50:29;0.60;;;0.50;;
1090;SDS011;534;48.704;9.122;2022-09-21T11:59:00;0.60;;;0.60;;
1090;SDS011;534;48.704;9.122;2022-09-21T12:01:41;0.70;;;0.50;;
1090;SDS011;534;48.704;9.122;2022-09-21T12:04:28;0.60;;;0.50;;
1090;SDS011;534;48.704;9.122;2022-09-21T12:10:05;0.60;;;0.50;;
1090;SDS011;534;48.704;9.122;2022-09-21T12:12:39;0.70;;;0.60;;
1090;SDS011;534;48.704;9.122;2022-09-21T12:15:12;0.70;;;0.60;;
1090;SDS011;534;48.704;9.122;2022-09-21T12:17:47;0.70;;;0.63;;
1090;SDS011;534;48.704;9.122;2022-09-21T12:20:24;0.60;;;0.50;;
1090;SDS011;534;48.704;9.122;2022-09-21T12:22:59;0.60;;;0.60;;
1090;SDS011;534;48.704;9.122;2022-09-21T12:25:30;0.60;;;0.50;;
1090;SDS011;534;48.704;9.122;2022-09-21T12:28:02;0.60;;;0.50;;
1090;SDS011;534;48.704;9.122;2022-09-21T12:30:33;0.63;;;0.60;;
1090;SDS011;534;48.704;9.122;2022-09-21T12:33:04;0.60;;;0.50;;
1090;SDS011;534;48.704;9.122;2022-09-21T12:35:39;0.60;;;0.50;;
1090;SDS011;534;48.704;9.122;2022-09-21T12:38:09;0.70;;;0.60;;
1090;SDS011;534;48.704;9.122;2022-09-21T12:40:42;1.10;;;0.60;;
1090;SDS011;534;48.704;9.122;2022-09-21T12:43:20;0.60;;;0.50;;
1090;SDS011;534;48.704;9.122;2022-09-21T12:45:54;0.60;;;0.50;;
1090;SDS011;534;48.704;9.122;2022-09-21T12:48:27;0.60;;;0.60;;
1090;SDS011;534;48.704;9.122;2022-09-21T12:50:59;0.60;;;0.50;;
1090;SDS011;534;48.704;9.122;2022-09-21T12:53:31;0.60;;;0.50;;
1090;SDS011;534;48.704;9.122;2022-09-21T12:56:04;0.70;;;0.50;;
1090;SDS011;534;48.704;9.122;2022-09-21T12:58:37;0.63;;;0.57;;
1090;SDS011;534;48.704;9.122;2022-09-21T13:01:21;0.70;;;0.60;;
1090;SDS011;534;48.704;9.122;2022-09-21T13:03:59;0.60;;;0.50;;
1090;SDS011;534;48.704;9.122;2022-09-21T13:06:49;0.70;;;0.50;;
1090;SDS011;534;48.704;9.122;2022-09-21T13:09:27;0.60;;;0.50;;
1090;SDS011;534;48.704;9.122;2022-09-21T13:11:56;0.60;;;0.50;;
1090;SDS011;534;48.704;9.122;2022-09-21T13:14:25;0.60;;;0.50;;
1090;SDS011;534;48.704;9.122;2022-09-21T13:16:59;0.60;;;0.50;;
1090;SDS011;534;48.704;9.122;2022-09-21T13:19:27;0.60;;;0.50;;
1090;SDS011;534;48.704;9.122;2022-09-21T13:22:18;0.60;;;0.50;;
1090;SDS011;534;48.704;9.122;2022-09-21T13:24:56;0.60;;;0.60;;
1090;SDS011;534;48.704;9.122;2022-09-21T13:30:29;0.60;;;0.50;;
1090;SDS011;534;48.704;9.122;2022-09-21T13:33:01;0.60;;;0.60;;
1090;SDS011;534;48.704;9.122;2022-09-21T13:35:50;0.60;;;0.50;;
1090;SDS011;534;48.704;9.122;2022-09-21T13:38:29;0.60;;;0.60;;
1090;SDS011;534;48.704;9.122;2022-09-21T13:40:59;0.60;;;0.50;;
1090;SDS011;534;48.704;9.122;2022-09-21T13:46:45;0.60;;;0.50;;
1090;SDS011;534;48.704;9.122;2022-09-21T13:52:05;0.60;;;0.50;;
1090;SDS011;534;48.704;9.122;2022-09-21T13:54:48;0.70;;;0.50;;
1090;SDS011;534;48.704;9.122;2022-09-21T13:57:17;0.60;;;0.50;;
1090;SDS011;534;48.704;9.122;2022-09-21T13:59:56;0.60;;;0.57;;
1090;SDS011;534;48.704;9.122;2022-09-21T14:02:30;0.60;;;0.50;;
1090;SDS011;534;48.704;9.122;2022-09-21T14:05:03;0.60;;;0.50;;
1090;SDS011;534;48.704;9.122;2022-09-21T14:07:34;0.60;;;0.50;;
1090;SDS011;534;48.704;9.122;2022-09-21T14:10:06;0.70;;;0.50;;
1090;SDS011;534;48.704;9.122;2022-09-21T14:12:36;0.60;;;0.50;;
1090;SDS011;534;48.704;9.122;2022-09-21T14:15:09;0.60;;;0.57;;
1090;SDS011;534;48.704;9.122;2022-09-21T14:21:14;0.80;;;0.50;;
1090;SDS011;534;48.704;9.122;2022-09-21T14:27:04;0.60;;;0.57;;
1090;SDS011;534;48.704;9.122;2022-09-21T14:29:40;0.60;;;0.60;;
1090;SDS011;534;48.704;9.122;2022-09-21T14:32:13;0.60;;;0.50;;
1090;SDS011;534;48.704;9.122;2022-09-21T14:34:44;0.63;;;0.53;;
1090;SDS011;534;48.704;9.122;2022-09-21T14:37:18;0.70;;;0.60;;
1090;SDS011;534;48.704;9.122;2022-09-21T14:39:53;0.60;;;0.50;;
1090;SDS011;534;48.704;9.122;2022-09-21T14:42:23;0.60;;;0.60;;
1090;SDS011;534;48.704;9.122;2022-09-21T14:44:54;0.60;;;0.50;;
1090;SDS011;534;48.704;9.122;2022-09-21T14:47:29;0.60;;;0.60;;
1090;SDS011;534;48.704;9.122;2022-09-21T14:50:11;0.60;;;0.50;;
1090;SDS011;534;48.704;9.122;2022-09-21T14:53:11;0.60;;;0.50;;
1090;SDS011;534;48.704;9.122;2022-09-21T14:56:01;0.60;;;0.50;;
1090;SDS011;534;48.704;9.122;2022-09-21T14:58:45;0.60;;;0.50;;
1090;SDS011;534;48.704;9.122;2022-09-21T15:01:19;0.60;;;0.50;;
1090;SDS011;534;48.704;9.122;2022-09-21T15:04:06;0.60;;;0.50;;
1090;SDS011;534;48.704;9.122;2022-09-21T15:06:52;0.60;;;0.50;;
1090;SDS011;534;48.704;9.122;2022-09-21T15:09:45;0.60;;;0.50;;
1090;SDS011;534;48.704;9.122;2022-09-21T15:12:46;0.60;;;0.60;;
1090;SDS011;534;48.704;9.122;2022-09-21T15:15:30;0.60;;;0.50;;
1090;SDS011;534;48.704;9.122;2022-09-21T15:18:00;0.60;;;0.50;;
1090;SDS011;534;48.704;9.122;2022-09-21T15:20:28;0.60;;;0.50;;
1090;SDS011;534;48.704;9.122;2022-09-21T15:22:57;0.60;;;0.50;;
1090;SDS011;534;48.704;9.122;2022-09-21T15:25:25;0.60;;;0.50;;
1090;SDS011;534;48.704;9.122;2022-09-21T15:27:56;0.60;;;0.50;;
1090;SDS011;534;48.704;9.122;2022-09-21T15:30:24;0.60;;;0.60;;
1090;SDS011;534;48.704;9.122;2022-09-21T15:32:55;0.60;;;0.50;;
1090;SDS011;534;48.704;9.122;2022-09-21T15:35:23;0.60;;;0.50;;
1090;SDS011;534;48.704;9.122;2022-09-21T15:37:52;0.80;;;0.60;;
1090;SDS011;534;48.704;9.122;2022-09-21T15:40:20;0.70;;;0.60;;
1090;SDS011;534;48.704;9.122;2022-09-21T15:42:58;0.60;;;0.50;;
1090;SDS011;534;48.704;9.122;2022-09-21T15:45:28;0.60;;;0.60;;
1090;SDS011;534;48.704;9.122;2022-09-21T15:48:00;0.60;;;0.50;;
1090;SDS011;534;48.704;9.122;2022-09-21T15:50:27;0.60;;;0.50;;
1090;SDS011;534;48.704;9.122;2022-09-21T15:52:55;0.60;;;0.60;;
1090;SDS011;534;48.704;9.122;2022-09-21T15:55:25;0.60;;;0.50;;
1090;SDS011;534;48.704;9.122;2022-09-21T15:57:54;0.60;;;0.60;;
1090;SDS011;534;48.704;9.122;2022-09-21T16:00:23;0.60;;;0.50;;
1090;SDS011;534;48.704;9.122;2022-09-21T16:02:55;1.00;;;0.60;;
1090;SDS011;534;48.704;9.122;2022-09-21T16:05:29;0.60;;;0.53;;
1090;SDS011;534;48.704;9.122;2022-09-21T16:08:05;0.60;;;0.50;;
1090;SDS011;534;48.704;9.122;2022-09-21T16:10:41;0.60;;;0.50;;
1090;SDS011;534;48.704;9.122;2022-09-21T16:13:09;0.60;;;0.50;;
1090;SDS011;534;48.704;9.122;2022-09-21T16:16:00;0.70;;;0.60;;
1090;SDS011;534;48.704;9.122;2022-09-21T16:18:28;0.70;;;0.60;;
1090;SDS011;534;48.704;9.122;2022-09-21T16:21:02;0.60;;;0.50;;
1090;SDS011;534;48.704;9.122;2022-09-21T16:23:33;0.60;;;0.50;;
1090;SDS011;534;48.704;9.122;2022-09-21T16:26:03;0.70;;;0.60;;
1090;SDS011;534;48.704;9.122;2022-09-21T16:28:35;0.60;;;0.60;;
1090;SDS011;534;48.704;9.122;2022-09-21T16:34:04;0.60;;;0.60;;
1090;SDS011;534;48.704;9.122;2022-09-21T16:36:47;0.60;;;0.57;;
1090;SDS011;534;48.704;9.122;2022-09-21T16:39:15;0.60;;;0.60;;
1090;SDS011;534;48.704;9.122;2022-09-21T16:41:45;0.60;;;0.53;;
1090;SDS011;534;48.704;9.122;2022-09-21T16:44:15;0.70;;;0.70;;
1090;SDS011;534;48.704;9.122;2022-09-21T16:46:45;0.60;;;0.60;;
1090;SDS011;534;48.704;9.122;2022-09-21T16:49:13;0.70;;;0.60;;
1090;SDS011;534;48.704;9.122;2022-09-21T16:51:42;0.60;;;0.60;;
1090;SDS011;534;48.704;9.122;2022-09-21T16:54:11;0.70;;;0.60;;
1090;SDS011;534;48.704;9.122;2022-09-21T16:56:38;0.60;;;0.60;;
1090;SDS011;534;48.704;9.122;2022-09-21T16:59:09;0.60;;;0.50;;
1090;SDS011;534;48.704;9.122;2022-09-21T17:01:40;0.70;;;0.50;;
1090;SDS011;534;48.704;9.122;2022-09-21T17:04:07;0.60;;;0.60;;
1090;SDS011;534;48.704;9.122;2022-09-21T17:06:35;0.60;;;0.50;;
1090;SDS011;534;48.704;9.122;2022-09-21T17:09:04;0.60;;;0.50;;
1090;SDS011;534;48.704;9.122;2022-09-21T17:11:41;0.60;;;0.50;;
1090;SDS011;534;48.704;9.122;2022-09-21T17:14:09;0.70;;;0.60;;
1090;SDS011;534;48.704;9.122;2022-09-21T17:16:39;0.60;;;0.60;;
1090;SDS011;534;48.704;9.122;2022-09-21T17:19:07;0.60;;;0.50;;
1090;SDS011;534;48.704;9.122;2022-09-21T17:21:34;0.60;;;0.60;;
1090;SDS011;534;48.704;9.122;2022-09-21T17:24:00;0.60;;;0.50;;
1090;SDS011;534;48.704;9.122;2022-09-21T17:26:29;0.60;;;0.50;;
1090;SDS011;534;48.704;9.122;2022-09-21T17:28:56;0.60;;;0.60;;
1090;SDS011;534;48.704;9.122;2022-09-21T17:31:23;0.60;;;0.60;;
1090;SDS011;534;48.704;9.122;2022-09-21T17:33:52;0.60;;;0.60;;
1090;SDS011;534;48.704;9.122;2022-09-21T17:36:21;0.60;;;0.60;;
1090;SDS011;534;48.704;9.122;2022-09-21T17:38:47;0.60;;;0.60;;
1090;SDS011;534;48.704;9.122;2022-09-21T17:41:15;0.70;;;0.60;;
1090;SDS011;534;48.704;9.122;2022-09-21T17:43:52;0.60;;;0.60;;
1090;SDS011;534;48.704;9.122;2022-09-21T17:46:25;0.60;;;0.60;;
1090;SDS011;534;48.704;9.122;2022-09-21T17:48:58;0.60;;;0.53;;
1090;SDS011;534;48.704;9.122;2022-09-21T17:51:25;0.60;;;0.60;;
1090;SDS011;534;48.704;9.122;2022-09-21T17:54:09;0.70;;;0.60;;
1090;SDS011;534;48.704;9.122;2022-09-21T17:56:38;0.60;;;0.60;;
1090;SDS011;534;48.704;9.122;2022-09-21T17:59:16;0.80;;;0.80;;
1090;SDS011;534;48.704;9.122;2022-09-21T18:01:50;0.70;;;0.70;;
1090;SDS011;534;48.704;9.122;2022-09-21T18:04:17;0.60;;;0.60;;
1090;SDS011;534;48.704;9.122;2022-09-21T18:06:44;0.67;;;0.67;;
1090;SDS011;534;48.704;9.122;2022-09-21T18:09:11;0.60;;;0.60;;
1090;SDS011;534;48.704;9.122;2022-09-21T18:14:57;1.10;;;1.03;;
1090;SDS011;534;48.704;9.122;2022-09-21T18:17:35;1.43;;;1.33;;
1090;SDS011;534;48.704;9.122;2022-09-21T18:20:17;1.07;;;1.07;;
1090;SDS011;534;48.704;9.122;2022-09-21T18:22:55;0.90;;;0.90;;
1090;SDS011;534;48.704;9.122;2022-09-21T18:25:32;0.80;;;0.80;;
1090;SDS011;534;48.704;9.122;2022-09-21T18:28:01;0.83;;;0.83;;
1090;SDS011;534;48.704;9.122;2022-09-21T18:30:37;1.00;;;1.00;;
1090;SDS011;534;48.704;9.122;2022-09-21T18:33:08;1.00;;;1.00;;
1090;SDS011;534;48.704;9.122;2022-09-21T18:35:45;0.97;;;0.90;;
1090;SDS011;534;48.704;9.122;2022-09-21T18:38:21;0.80;;;0.80;;
1090;SDS011;534;48.704;9.122;2022-09-21T18:40:59;0.80;;;0.80;;
1090;SDS011;534;48.704;9.122;2022-09-21T18:43:52;0.80;;;0.80;;
1090;SDS011;534;48.704;9.122;2022-09-21T18:46:33;0.80;;;0.80;;
1090;SDS011;534;48.704;9.122;2022-09-21T18:49:12;0.70;;;0.70;;
1090;SDS011;534;48.704;9.122;2022-09-21T18:51:49;1.10;;;0.70;;
1090;SDS011;534;48.704;9.122;2022-09-21T18:54:21;0.70;;;0.70;;
1090;SDS011;534;48.704;9.122;2022-09-21T18:56:49;0.77;;;0.77;;
1090;SDS011;534;48.704;9.122;2022-09-21T18:59:16;0.80;;;0.80;;
1090;SDS011;534;48.704;9.122;2022-09-21T19:01:45;1.10;;;1.10;;
1090;SDS011;534;48.704;9.122;2022-09-21T19:04:13;1.03;;;1.03;;
1090;SDS011;534;48.704;9.122;2022-09-21T19:06:45;0.93;;;0.93;;
1090;SDS011;534;48.704;9.122;2022-09-21T19:09:36;0.80;;;0.80;;
1090;SDS011;534;48.704;9.122;2022-09-21T19:12:12;0.90;;;0.90;;
1090;SDS011;534;48.704;9.122;2022-09-21T19:14:49;0.87;;;0.87;;
1090;SDS011;534;48.704;9.122;2022-09-21T19:17:27;0.80;;;0.80;;
1090;SDS011;534;48.704;9.122;2022-09-21T19:20:18;0.93;;;0.93;;
1090;SDS011;534;48.704;9.122;2022-09-21T19:22:55;0.90;;;0.90;;
1090;SDS011;534;48.704;9.122;2022-09-21T19:25:28;1.00;;;1.00;;
1090;SDS011;534;48.704;9.122;2022-09-21T19:28:01;0.80;;;0.80;;
1090;SDS011;534;48.704;9.122;2022-09-21T19:30:39;1.13;;;1.07;;
1090;SDS011;534;48.704;9.122;2022-09-21T19:33:16;0.83;;;0.83;;
1090;SDS011;534;48.704;9.122;2022-09-21T19:35:50;0.77;;;0.77;;